LHPA

Pápa Air Base Airport

Pápa, Hungary
TAF LHPA 190515Z 1906/2006 VRB03KT CAVOK PROB30 TEMPO 1906/1908 3000 BR MIBCFG NSC BECMG 1908/1910 34007KT BECMG 1918/1921 VRB03KT TEMPO 2000/2006 3000 BR MIBCFG NSC PROB30 TEMPO 2002/2006 0800 FG
Issued Valid From Valid To
Oct-19 @ 05:15 UTC
(4 hours ago)
Oct-19 @ 06:00 UTC
(3 hours ago)
Oct-20 @ 06:00 UTC
(in 21 hours)
Expired Click to View Oct-19 @ 06:00 to Oct-19 @ 08:00
TAF LHPA 190515Z 1906/2006 VRB03KT CAVOK
Wind Visibility Clouds Conditions
Variable at 3 knots 10,000+ meters
  • No significant clouds
Expired Click to View Oct-19 @ 06:00 to Oct-19 @ 08:00
PROB30 TEMPO 1906/1908 3000 BR MIBCFG NSC
Visibility Clouds Conditions
2,993 meters
  • No significant clouds
  • Mist
  • Shallow
  • Patches of
  • Fog
Becoming Oct-19 @ 08:00 to Oct-19 @ 18:00
BECMG 1908/1910 34007KT
Wind Visibility Clouds Conditions
340° at 7 knots 10,000+ meters
  • No significant clouds
Becoming Oct-19 @ 18:00 to Oct-20 @ 06:00
BECMG 1918/1921 VRB03KT
Wind Visibility Clouds Conditions
Variable at 3 knots 10,000+ meters
  • No significant clouds
Temporary Oct-20 @ 00:00 to Oct-20 @ 06:00
TEMPO 2000/2006 3000 BR MIBCFG NSC
Visibility Clouds Conditions
2,993 meters
  • No significant clouds
  • Mist
  • Shallow
  • Patches of
  • Fog
Temporary  (Probability 30%) Oct-20 @ 02:00 to Oct-20 @ 06:00
PROB30 TEMPO 2002/2006 0800 FG
Visibility Conditions
805 meters
  • Fog
TAF LHPA 190515Z 1906/2006 VRB03KT CAVOK PROB30 TEMPO 1906/1908 3000 BR MIBCFG NSC BECMG 1908/1910 34007KT BECMG 1918/1921 VRB03KT TEMPO 2000/2006 3000 BR MIBCFG NSC PROB30 TEMPO 2002/2006 0800 FG
Issued Oct-19 @ 05:15 UTC
(4 hours ago)
Valid From Oct-19 @ 06:00 UTC
(3 hours ago)
Valid To Oct-20 @ 06:00 UTC
(in 21 hours)
Oct-19 @ 06:00 - Oct-19 @ 08:00
Wind Visibility
Variable at 3 knots 10,000+ meters
Clouds
  • No significant clouds
Conditions
Oct-19 @ 06:00 - Oct-19 @ 08:00
Clouds
  • No significant clouds
Conditions
  • Mist
  • Shallow
  • Patches of
  • Fog
Becoming Oct-19 @ 08:00 - Oct-19 @ 18:00
Wind Visibility
340° at 7 knots 10,000+ meters
Clouds
  • No significant clouds
Conditions
Becoming Oct-19 @ 18:00 - Oct-20 @ 06:00
Wind Visibility
Variable at 3 knots 10,000+ meters
Clouds
  • No significant clouds
Conditions
Temporary Oct-20 @ 00:00 - Oct-20 @ 06:00
Clouds
  • No significant clouds
Conditions
  • Mist
  • Shallow
  • Patches of
  • Fog
Probability 30% Temporary Oct-20 @ 02:00 - Oct-20 @ 06:00
Conditions
  • Fog